Terminal Aerodrome Forecast
Issued by NWS Cleveland, OH

Home | Current Version | Previous Version | Graphics & Text | Print | Product List | Glossary On
Versions: 1 2 3 4 5 6 7 8 9 10 11 12 13 14 15 16 17 18 19 20 21 22 23 24 25
247
FTUS41 KCLE 161131
TAFERI
TAF
KERI 161131Z 1612/1712 18006KT P6SM OVC200
     FM162000 12004KT P6SM SCT025 BKN050
     FM170500 14008KT 5SM -RA BR SCT008 OVC015=

USA.gov is the U.S. government's official web portal to all federal, state and local government web resources and services.